Time;durP1;ratioP1;P1;durP2;ratioP2;P2;SDS_P1;SDS_P2;PMS_P1;PMS_P2;Temp;Humidity;BMP_temperature;BMP_pressure;BME280_temperature;BME280_humidity;BME280_pressure;Samples;Min_cycle;Max_cycle;Signal;HPM_P1;HPM_P2
2024/03/14 00:00:29;;;;;;;60.10;33.00;;;;;;;6.20;100.00;100865.70;105991;1265;98536;-82
2024/03/14 00:03:37;;;;;;;61.60;32.50;;;;;;;6.18;100.00;100864.66;106242;1265;104443;-82
2024/03/14 00:06:22;;;;;;;64.70;33.30;;;;;;;6.17;100.00;100864.73;106071;1267;99363;-83
2024/03/14 00:09:08;;;;;;;58.30;34.00;;;;;;;6.16;100.00;100866.80;105925;1261;98133;-82
2024/03/14 00:11:55;;;;;;;60.50;33.30;;;;;;;6.16;100.00;100865.40;105974;1267;98130;-82
2024/03/14 00:14:50;;;;;;;63.30;34.10;;;;;;;6.16;100.00;100864.84;105909;1265;99794;-83
2024/03/14 00:17:37;;;;;;;60.80;32.20;;;;;;;6.14;100.00;100865.89;105876;1265;102787;-81
2024/03/14 00:20:23;;;;;;;65.10;32.10;;;;;;;6.12;100.00;100861.54;106031;1266;99189;-83
2024/03/14 00:23:09;;;;;;;64.20;33.10;;;;;;;6.11;100.00;100858.47;106037;1266;98043;-83
2024/03/14 00:25:54;;;;;;;64.10;33.50;;;;;;;6.10;100.00;100856.20;105982;1265;98103;-83
2024/03/14 00:28:40;;;;;;;68.90;36.90;;;;;;;6.10;100.00;100854.48;106213;1265;97861;-82
2024/03/14 00:31:25;;;;;;;69.60;32.70;;;;;;;6.09;100.00;100852.27;106098;1260;101413;-83
2024/03/14 00:34:12;;;;;;;67.90;33.90;;;;;;;6.10;100.00;100844.23;106091;1267;100002;-83
2024/03/14 00:36:58;;;;;;;64.30;33.60;;;;;;;6.10;100.00;100847.02;106131;1264;99000;-80
2024/03/14 00:39:46;;;;;;;63.20;33.80;;;;;;;6.09;100.00;100847.45;106101;1265;99215;-84
2024/03/14 00:42:32;;;;;;;63.40;33.20;;;;;;;6.08;100.00;100844.22;105935;1265;97967;-81
2024/03/14 00:45:19;;;;;;;67.10;34.70;;;;;;;6.07;100.00;100844.11;105938;1266;101410;-83
2024/03/14 00:48:06;;;;;;;67.90;33.70;;;;;;;6.07;100.00;100844.97;106113;1264;99239;-82
2024/03/14 00:50:53;;;;;;;62.60;34.50;;;;;;;6.08;100.00;100846.36;105943;1264;97880;-82
2024/03/14 00:53:39;;;;;;;66.00;36.90;;;;;;;6.09;100.00;100839.16;106050;1264;97902;-83
2024/03/14 00:56:26;;;;;;;67.20;36.70;;;;;;;6.08;100.00;100837.46;105891;1266;98524;-83
2024/03/14 00:59:12;;;;;;;67.90;37.50;;;;;;;6.08;100.00;100841.69;105892;1261;101324;-82
2024/03/14 01:01:59;;;;;;;70.90;38.60;;;;;;;6.09;100.00;100840.59;106130;1264;100569;-82
2024/03/14 01:04:45;;;;;;;66.00;35.80;;;;;;;6.09;100.00;100840.70;106082;1263;99068;-82
2024/03/14 01:07:33;;;;;;;70.10;37.20;;;;;;;6.09;100.00;100839.84;106037;1260;98041;-82
2024/03/14 01:10:20;;;;;;;65.70;35.70;;;;;;;6.09;100.00;100836.65;106027;1261;98463;-83
2024/03/14 01:13:07;;;;;;;73.00;37.40;;;;;;;6.09;100.00;100837.02;106002;1261;101471;-83
2024/03/14 01:15:53;;;;;;;74.30;37.00;;;;;;;6.08;100.00;100839.92;105906;1261;100434;-80
2024/03/14 01:18:40;;;;;;;67.40;37.10;;;;;;;6.08;100.00;100840.36;105945;1267;99494;-81
2024/03/14 01:21:26;;;;;;;82.70;38.90;;;;;;;6.07;100.00;100837.73;105971;1260;98981;-82
2024/03/14 01:24:15;;;;;;;76.30;39.20;;;;;;;6.06;100.00;100834.26;106029;1261;98496;-81
2024/03/14 01:27:00;;;;;;;78.50;38.90;;;;;;;6.06;100.00;100835.48;106128;1264;102680;-82
2024/03/14 01:29:47;;;;;;;74.90;40.50;;;;;;;6.07;100.00;100832.73;106016;1268;100458;-81
2024/03/14 01:32:33;;;;;;;76.10;36.00;;;;;;;6.08;100.00;100828.27;105915;1265;97881;-80
2024/03/14 01:35:18;;;;;;;76.70;37.70;;;;;;;6.08;100.00;100830.02;105954;1265;97970;-83
2024/03/14 01:38:03;;;;;;;76.00;37.80;;;;;;;6.07;100.00;100826.38;105825;1267;98568;-82
2024/03/14 01:40:49;;;;;;;74.20;37.10;;;;;;;6.06;100.00;100822.76;106215;1263;102682;-81
2024/03/14 01:43:35;;;;;;;70.10;37.00;;;;;;;6.07;100.00;100821.77;106148;1261;100035;-82
2024/03/14 01:46:20;;;;;;;75.20;38.10;;;;;;;6.07;100.00;100825.13;106043;1259;97954;-81
2024/03/14 01:49:06;;;;;;;79.60;39.10;;;;;;;6.07;100.00;100830.34;106068;1266;97883;-82
2024/03/14 01:51:52;;;;;;;72.80;38.80;;;;;;;6.07;100.00;100831.41;105685;1261;490182;-85
2024/03/14 01:54:38;;;;;;;77.90;38.00;;;;;;;6.07;100.00;100831.50;106044;1261;102576;-81
2024/03/14 01:57:25;;;;;;;74.50;38.50;;;;;;;6.08;100.00;100834.46;105998;1261;99109;-82
2024/03/14 02:00:13;;;;;;;74.70;38.60;;;;;;;6.08;100.00;100832.50;105910;1264;98457;-82
2024/03/14 02:03:01;;;;;;;75.00;37.10;;;;;;;6.09;100.00;100832.98;105996;1260;97999;-82
2024/03/14 02:05:54;;;;;;;75.60;37.30;;;;;;;6.10;100.00;100831.30;106096;1264;97976;-82
2024/03/14 02:08:40;;;;;;;73.80;38.90;;;;;;;6.11;100.00;100826.23;105960;1261;102433;-80
2024/03/14 02:11:26;;;;;;;79.50;39.10;;;;;;;6.12;100.00;100822.91;106133;1261;99162;-82
2024/03/14 02:14:12;;;;;;;76.00;36.50;;;;;;;6.12;100.00;100824.51;106078;1264;98499;-81
2024/03/14 02:16:59;;;;;;;73.00;36.30;;;;;;;6.11;100.00;100824.74;105852;1260;98016;-81
2024/03/14 02:19:45;;;;;;;80.40;40.30;;;;;;;6.11;100.00;100825.77;105889;1266;97907;-80
2024/03/14 02:22:31;;;;;;;82.50;40.40;;;;;;;6.11;100.00;100824.38;105832;1264;101351;-82
2024/03/14 02:25:18;;;;;;;80.90;40.00;;;;;;;6.11;100.00;100828.63;106012;1266;100444;-81
2024/03/14 02:28:04;;;;;;;77.60;38.30;;;;;;;6.09;100.00;100828.80;106111;1261;99064;-81
2024/03/14 02:30:50;;;;;;;79.80;40.50;;;;;;;6.08;100.00;100827.85;106101;1266;97948;-81
2024/03/14 02:33:35;;;;;;;85.70;41.80;;;;;;;6.08;100.00;100825.73;105910;1264;98453;-81
2024/03/14 02:36:22;;;;;;;81.70;42.50;;;;;;;6.09;100.00;100827.13;105966;1259;102241;-81
2024/03/14 02:39:10;;;;;;;85.50;43.10;;;;;;;6.09;100.00;100824.58;105942;1260;100534;-82
2024/03/14 02:41:56;;;;;;;87.50;42.90;;;;;;;6.09;100.00;100822.64;105898;1264;99370;-83
2024/03/14 02:44:43;;;;;;;96.60;48.20;;;;;;;6.10;100.00;100821.69;106024;1266;99159;-82
2024/03/14 02:47:29;;;;;;;95.10;45.00;;;;;;;6.10;100.00;100823.79;106120;1263;97954;-81
2024/03/14 02:50:15;;;;;;;89.50;45.10;;;;;;;6.10;100.00;100823.09;105940;1261;102162;-80
2024/03/14 02:53:01;;;;;;;94.60;48.60;;;;;;;6.11;100.00;100823.56;106203;1264;99291;-82
2024/03/14 02:55:46;;;;;;;96.10;46.40;;;;;;;6.11;100.00;100822.61;106136;1261;98035;-81
2024/03/14 02:58:32;;;;;;;89.80;46.30;;;;;;;6.12;100.00;100820.61;106055;1263;97759;-82
2024/03/14 03:01:18;;;;;;;95.00;46.80;;;;;;;6.12;100.00;100822.19;106111;1264;97269;-83
2024/03/14 03:04:04;;;;;;;98.10;48.00;;;;;;;6.12;100.00;100821.59;106079;1264;102604;-82
2024/03/14 03:06:53;;;;;;;89.90;45.80;;;;;;;6.12;100.00;100821.59;106022;1264;99794;-83
2024/03/14 03:09:41;;;;;;;90.70;45.60;;;;;;;6.13;100.00;100820.66;106067;1261;99056;-82
2024/03/14 03:12:27;;;;;;;85.10;44.50;;;;;;;6.14;100.00;100817.54;105936;1260;97770;-82
2024/03/14 03:15:14;;;;;;;84.90;45.40;;;;;;;6.14;100.00;100814.02;105942;1260;97718;-83
2024/03/14 03:18:01;;;;;;;90.70;45.80;;;;;;;6.14;100.00;100813.69;105957;1261;101447;-82
2024/03/14 03:20:47;;;;;;;97.10;48.70;;;;;;;6.13;100.00;100810.86;105910;1261;99076;-81
2024/03/14 03:23:33;;;;;;;90.70;45.00;;;;;;;6.12;100.00;100809.55;105816;1260;99144;-81
2024/03/14 03:26:19;;;;;;;84.50;40.80;;;;;;;6.12;100.00;100811.58;105973;1264;97967;-81
2024/03/14 03:29:06;;;;;;;86.90;42.80;;;;;;;6.12;100.00;100811.03;106029;1264;98184;-81
2024/03/14 03:31:52;;;;;;;79.60;41.90;;;;;;;6.12;100.00;100809.05;105859;1260;101486;-82
2024/03/14 03:34:38;;;;;;;78.70;41.20;;;;;;;6.12;100.00;100807.42;106019;1260;99277;-80
2024/03/14 03:37:24;;;;;;;82.20;41.50;;;;;;;6.13;100.00;100808.79;105928;1267;98038;-82
2024/03/14 03:40:14;;;;;;;79.70;39.00;;;;;;;6.13;100.00;100810.36;105888;1262;98069;-81
2024/03/14 03:43:00;;;;;;;76.60;38.20;;;;;;;6.13;100.00;100809.29;105874;1265;97965;-83
2024/03/14 03:45:46;;;;;;;73.20;36.00;;;;;;;6.12;100.00;100807.45;106032;1266;101454;-82
2024/03/14 03:48:42;;;;;;;63.20;32.60;;;;;;;6.11;100.00;100811.23;106023;1265;99174;-81
2024/03/14 03:51:27;;;;;;;58.80;28.30;;;;;;;6.11;100.00;100813.77;105969;1260;98985;-81
2024/03/14 03:54:27;;;;;;;65.80;29.10;;;;;;;6.09;100.00;100815.23;105977;1266;99368;-83
2024/03/14 03:57:13;;;;;;;66.10;31.80;;;;;;;6.06;100.00;100817.56;106161;1260;97954;-83
2024/03/14 04:00:07;;;;;;;62.30;30.30;;;;;;;6.03;100.00;100817.89;105917;1261;102152;-82
2024/03/14 04:02:52;;;;;;;65.60;31.00;;;;;;;6.02;100.00;100817.34;106052;1265;100165;-82
2024/03/14 04:05:39;;;;;;;60.00;30.60;;;;;;;6.01;100.00;100813.54;105878;1261;97998;-82
2024/03/14 04:08:24;;;;;;;62.00;31.80;;;;;;;6.02;100.00;100817.54;105865;1268;97874;-81
2024/03/14 04:11:11;;;;;;;68.70;32.20;;;;;;;6.02;100.00;100826.74;105904;1261;97970;-82
2024/03/14 04:13:57;;;;;;;64.60;30.70;;;;;;;6.02;100.00;100823.33;106075;1261;101448;-83
2024/03/14 04:16:43;;;;;;;62.10;30.80;;;;;;;6.01;100.00;100826.27;106017;1260;100001;-81
2024/03/14 04:19:29;;;;;;;70.00;33.00;;;;;;;6.00;100.00;100831.70;106035;1261;97924;-82
2024/03/14 04:22:15;;;;;;;63.70;31.20;;;;;;;5.97;100.00;100836.07;106353;1260;97976;-82
2024/03/14 04:25:03;;;;;;;56.90;30.00;;;;;;;5.95;100.00;100834.16;105901;1264;99193;-81
2024/03/14 04:27:52;;;;;;;61.00;30.70;;;;;;;5.95;100.00;100831.33;107011;1260;101454;-83
2024/03/14 04:30:38;;;;;;;61.40;29.80;;;;;;;5.95;100.00;100832.36;105988;1260;99150;-82
2024/03/14 04:33:23;;;;;;;62.10;31.30;;;;;;;5.96;100.00;100830.70;105903;1264;98043;-81
2024/03/14 04:36:09;;;;;;;57.60;29.30;;;;;;;5.96;100.00;100831.07;105721;1259;97913;-82
2024/03/14 04:38:55;;;;;;;62.30;30.00;;;;;;;5.96;100.00;100833.36;105959;1260;98522;-81
2024/03/14 04:41:41;;;;;;;61.30;30.00;;;;;;;5.96;100.00;100833.17;105825;1264;101375;-82
2024/03/14 04:44:28;;;;;;;57.90;30.50;;;;;;;5.95;100.00;100832.58;105985;1260;99155;-82
2024/03/14 04:47:15;;;;;;;64.60;31.00;;;;;;;5.95;100.00;100833.32;105750;1265;98009;-82
2024/03/14 04:50:02;;;;;;;59.50;29.10;;;;;;;5.92;100.00;100835.40;105883;1266;97964;-81
2024/03/14 04:52:57;;;;;;;58.30;31.10;;;;;;;5.88;100.00;100836.08;105989;1260;98124;-81
2024/03/14 04:55:45;;;;;;;59.20;29.90;;;;;;;5.85;100.00;100833.44;105918;1260;101841;-82
2024/03/14 04:58:31;;;;;;;63.60;30.50;;;;;;;5.85;100.00;100836.80;106004;1259;99164;-81
2024/03/14 05:01:17;;;;;;;69.50;35.00;;;;;;;5.86;100.00;100839.34;106098;1261;98990;-82
2024/03/14 05:04:05;;;;;;;63.00;33.70;;;;;;;5.87;100.00;100842.08;106080;1265;98082;-82
2024/03/14 05:06:51;;;;;;;70.30;32.10;;;;;;;5.88;100.00;100844.15;106212;1259;97996;-82
2024/03/14 05:09:38;;;;;;;61.90;31.30;;;;;;;5.84;100.00;100848.35;106244;1259;102738;-82
2024/03/14 05:12:24;;;;;;;59.00;29.50;;;;;;;5.81;100.00;100848.09;106113;1259;100449;-82
2024/03/14 05:15:09;;;;;;;64.70;31.50;;;;;;;5.81;100.00;100848.16;106045;1261;97945;-82
2024/03/14 05:18:01;;;;;;;61.20;31.60;;;;;;;5.82;100.00;100847.53;106123;1260;98004;-82
2024/03/14 05:20:48;;;;;;;66.70;33.60;;;;;;;5.81;100.00;100845.66;106004;1259;97725;-82
2024/03/14 05:23:34;;;;;;;65.20;33.20;;;;;;;5.80;100.00;100844.30;106030;1263;101367;-82
2024/03/14 05:26:20;;;;;;;67.20;32.30;;;;;;;5.81;100.00;100843.17;105898;1259;99324;-82
2024/03/14 05:29:06;;;;;;;64.30;30.80;;;;;;;5.82;100.00;100845.02;105994;1260;99241;-82
2024/03/14 05:31:52;;;;;;;60.20;30.60;;;;;;;5.84;100.00;100845.75;106223;1260;97966;-82
2024/03/14 05:34:38;;;;;;;60.50;29.60;;;;;;;5.85;100.00;100843.48;105990;1259;97534;-82
2024/03/14 05:37:24;;;;;;;65.90;30.50;;;;;;;5.88;100.00;100847.83;106081;1259;101357;-83
2024/03/14 05:40:10;;;;;;;68.70;32.60;;;;;;;5.90;100.00;100849.77;106019;1264;99071;-83
2024/03/14 05:42:56;;;;;;;63.80;31.60;;;;;;;5.91;100.00;100847.54;105946;1265;97789;-82
2024/03/14 05:45:41;;;;;;;65.80;30.60;;;;;;;5.92;100.00;100849.50;105935;1259;97942;-83
2024/03/14 05:48:27;;;;;;;61.40;31.20;;;;;;;5.95;100.00;100853.66;106120;1260;96319;-83
2024/03/14 05:51:14;;;;;;;59.20;30.40;;;;;;;5.97;100.00;100856.00;106027;1260;101369;-82
2024/03/14 05:53:59;;;;;;;69.50;32.50;;;;;;;5.96;100.00;100862.23;106168;1259;99751;-82
2024/03/14 05:56:45;;;;;;;67.40;33.70;;;;;;;5.95;100.00;100868.19;106071;1260;98649;-81
2024/03/14 05:59:31;;;;;;;61.10;31.70;;;;;;;5.95;100.00;100867.85;106013;1259;98761;-81
2024/03/14 06:02:17;;;;;;;72.50;33.50;;;;;;;5.95;100.00;100868.52;106093;1264;97967;-82
2024/03/14 06:05:03;;;;;;;63.70;33.00;;;;;;;5.97;100.00;100866.60;106097;1260;102634;-81
2024/03/14 06:07:50;;;;;;;65.50;32.50;;;;;;;5.98;100.00;100870.77;105915;1259;100479;-80
2024/03/14 06:10:36;;;;;;;66.80;32.70;;;;;;;5.99;100.00;100873.98;106043;1259;98464;-81
2024/03/14 06:13:22;;;;;;;63.90;31.30;;;;;;;6.00;100.00;100877.30;105931;1265;98002;-81
2024/03/14 06:16:09;;;;;;;66.00;31.50;;;;;;;5.98;100.00;100871.94;105985;1264;98178;-82
2024/03/14 06:18:55;;;;;;;58.90;29.80;;;;;;;6.00;100.00;100871.09;108045;1259;101415;-82
2024/03/14 06:21:40;;;;;;;60.50;29.80;;;;;;;6.01;100.00;100871.13;106055;1264;99216;-82
2024/03/14 06:24:26;;;;;;;62.20;30.00;;;;;;;6.02;100.00;100871.05;106033;1264;98026;-82
2024/03/14 06:27:12;;;;;;;70.40;33.50;;;;;;;6.02;100.00;100874.05;106017;1264;98166;-81
2024/03/14 06:29:57;;;;;;;61.60;28.70;;;;;;;5.99;100.00;100869.44;105966;1259;98782;-83
2024/03/14 06:32:45;;;;;;;62.20;30.90;;;;;;;5.95;100.00;100868.39;106040;1259;101688;-81
2024/03/14 06:35:31;;;;;;;64.20;32.60;;;;;;;5.95;100.00;100869.45;106085;1260;100215;-81
2024/03/14 06:38:18;;;;;;;65.80;33.00;;;;;;;5.95;100.00;100869.42;106022;1261;99283;-81
2024/03/14 06:41:04;;;;;;;61.00;30.80;;;;;;;5.95;100.00;100869.97;106075;1259;98149;-82
2024/03/14 06:43:49;;;;;;;73.30;37.70;;;;;;;5.95;100.00;100872.13;106023;1261;99250;-82
2024/03/14 06:46:39;;;;;;;73.30;37.10;;;;;;;5.95;100.00;100871.05;106067;1265;102678;-82
2024/03/14 06:49:26;;;;;;;60.70;30.90;;;;;;;5.97;100.00;100872.96;105994;1260;99183;-82
2024/03/14 06:52:12;;;;;;;63.70;31.30;;;;;;;6.00;100.00;100875.14;106041;1260;98025;-82
2024/03/14 06:54:57;;;;;;;66.80;31.90;;;;;;;6.01;100.00;100878.61;105882;1260;98008;-80
2024/03/14 06:57:45;;;;;;;61.80;32.80;;;;;;;6.02;100.00;100880.42;106056;1260;98492;-81
2024/03/14 07:00:30;;;;;;;62.70;29.20;;;;;;;6.04;100.00;100876.52;106106;1261;101257;-82
2024/03/14 07:03:16;;;;;;;59.10;29.30;;;;;;;6.08;100.00;100877.02;106103;1265;99203;-81
2024/03/14 07:06:03;;;;;;;63.70;29.80;;;;;;;6.12;100.00;100879.82;106006;1260;98970;-82
2024/03/14 07:08:56;;;;;;;63.40;30.50;;;;;;;6.15;100.00;100880.02;106181;1259;97978;-83
2024/03/14 07:11:43;;;;;;;59.90;29.40;;;;;;;6.18;100.00;100880.41;106031;1259;98713;-83
2024/03/14 07:14:30;;;;;;;60.90;29.20;;;;;;;6.19;100.00;100880.52;105943;1263;101458;-83
2024/03/14 07:17:16;;;;;;;63.20;30.10;;;;;;;6.20;100.00;100887.02;106098;1264;99766;-82
2024/03/14 07:20:33;;;;;;;58.60;29.20;;;;;;;6.21;100.00;100891.64;105824;1262;99094;-82
2024/03/14 07:23:10;;;;;;;66.00;30.20;;;;;;;6.22;100.00;100890.52;106125;1259;97860;-82
2024/03/14 07:25:56;;;;;;;57.80;29.40;;;;;;;6.25;100.00;100894.48;106262;1264;98508;-89
2024/03/14 07:28:42;;;;;;;60.00;30.60;;;;;;;6.27;100.00;100897.70;106254;1264;101959;-87
2024/03/14 07:31:29;;;;;;;67.80;31.50;;;;;;;6.28;100.00;100901.95;106357;1259;100938;-86
2024/03/14 07:34:16;;;;;;;62.40;30.40;;;;;;;6.31;100.00;100906.66;106595;1259;99236;-89
2024/03/14 07:37:02;;;;;;;62.40;31.50;;;;;;;6.33;100.00;100908.55;106392;1259;97986;-89
2024/03/14 07:39:52;;;;;;;62.80;31.70;;;;;;;6.36;100.00;100909.54;106496;1259;98057;-89
2024/03/14 07:42:39;;;;;;;62.90;31.20;;;;;;;6.36;100.00;100907.05;106265;1259;101683;-89
2024/03/14 07:45:24;;;;;;;61.30;32.10;;;;;;;6.38;100.00;100908.77;106091;1264;100456;-79
2024/03/14 07:48:10;;;;;;;64.00;31.20;;;;;;;6.41;100.00;100910.09;106178;1260;99108;-79
2024/03/14 07:50:58;;;;;;;64.40;31.40;;;;;;;6.40;100.00;100913.88;105742;1260;97884;-80
2024/03/14 07:53:46;;;;;;;61.20;31.80;;;;;;;6.43;100.00;100914.34;105765;1260;98476;-85
2024/03/14 07:56:32;;;;;;;63.40;32.60;;;;;;;6.44;100.00;100915.08;106295;1265;102704;-81
2024/03/14 07:59:18;;;;;;;67.10;34.50;;;;;;;6.46;100.00;100918.92;106401;1259;100511;-86
2024/03/14 08:02:07;;;;;;;77.50;41.30;;;;;;;6.50;100.00;100920.17;106188;1260;97955;-81
2024/03/14 08:04:52;;;;;;;69.90;37.20;;;;;;;6.52;100.00;100918.20;105877;1265;97957;-81
2024/03/14 08:07:37;;;;;;;79.80;40.70;;;;;;;6.54;100.00;100919.96;105835;1260;97969;-82
2024/03/14 08:10:23;;;;;;;69.80;37.30;;;;;;;6.56;100.00;100921.55;105956;1259;101472;-83
2024/03/14 08:13:09;;;;;;;72.60;38.30;;;;;;;6.58;100.00;100922.55;105958;1267;100639;-82
2024/03/14 08:15:59;;;;;;;69.50;37.30;;;;;;;6.59;100.00;100924.25;105758;1260;98395;-84
2024/03/14 08:18:46;;;;;;;62.20;33.70;;;;;;;6.60;100.00;100928.59;105929;1261;98008;-83
2024/03/14 08:21:32;;;;;;;63.50;35.20;;;;;;;6.61;100.00;100931.09;105772;1259;98510;-87
2024/03/14 08:24:19;;;;;;;65.00;33.90;;;;;;;6.62;100.00;100930.98;105837;1264;102655;-84
2024/03/14 08:27:05;;;;;;;55.60;29.90;;;;;;;6.65;100.00;100938.15;106480;1262;100483;-80
2024/03/14 08:29:52;;;;;;;57.90;29.70;;;;;;;6.69;100.00;100938.28;106595;1262;97880;-81
2024/03/14 08:32:42;;;;;;;59.70;29.90;;;;;;;6.72;100.00;100939.15;106587;1259;97948;-80
2024/03/14 08:35:28;;;;;;;58.40;32.10;;;;;;;6.76;100.00;100940.58;106020;1259;97974;-79
2024/03/14 08:38:15;;;;;;;60.90;30.50;;;;;;;6.79;100.00;100939.74;105324;1264;101418;-77
2024/03/14 08:41:02;;;;;;;50.10;29.20;;;;;;;6.79;100.00;100937.95;105369;1259;100440;-77
2024/03/14 08:43:47;;;;;;;55.80;29.80;;;;;;;6.81;100.00;100936.49;105404;1264;97897;-77
2024/03/14 08:46:33;;;;;;;62.70;34.30;;;;;;;6.85;100.00;100937.98;105284;1260;98198;-77
2024/03/14 08:49:19;;;;;;;57.70;30.80;;;;;;;6.88;100.00;100938.45;105494;1259;97956;-78
2024/03/14 08:52:06;;;;;;;87.20;45.00;;;;;;;6.91;100.00;100940.13;105389;1264;102346;-77
2024/03/14 08:54:53;;;;;;;55.10;31.20;;;;;;;6.93;100.00;100943.13;105369;1260;99929;-78
2024/03/14 08:57:38;;;;;;;54.10;29.00;;;;;;;6.92;100.00;100944.99;105296;1264;98603;-87
2024/03/14 09:00:24;;;;;;;53.80;28.70;;;;;;;6.92;100.00;100941.56;106204;1259;97958;-89
2024/03/14 09:03:15;;;;;;;57.30;29.40;;;;;;;6.95;100.00;100942.89;106139;1259;98420;-82
2024/03/14 09:06:00;;;;;;;46.90;26.50;;;;;;;6.99;100.00;100946.75;106161;1264;101231;-78
2024/03/14 09:08:46;;;;;;;48.80;27.30;;;;;;;7.04;100.00;100947.98;105614;1262;100045;-79
2024/03/14 09:11:32;;;;;;;43.90;25.70;;;;;;;7.10;100.00;100949.73;105568;1263;99131;-79
2024/03/14 09:14:18;;;;;;;48.50;27.00;;;;;;;7.14;100.00;100949.26;105549;1259;99278;-79
2024/03/14 09:17:04;;;;;;;47.70;30.30;;;;;;;7.18;100.00;100944.85;105635;1260;99643;-78
2024/03/14 09:19:50;;;;;;;50.50;30.10;;;;;;;7.22;100.00;100941.88;105628;1259;101575;-78
2024/03/14 09:22:36;;;;;;;49.40;29.00;;;;;;;7.27;100.00;100938.05;105619;1264;99338;-78
2024/03/14 09:25:26;;;;;;;53.40;30.30;;;;;;;7.31;100.00;100933.74;105652;1264;98016;-78
2024/03/14 09:28:11;;;;;;;58.30;32.60;;;;;;;7.32;100.00;100929.85;105428;1259;100164;-78
2024/03/14 09:30:58;;;;;;;51.00;30.40;;;;;;;7.36;100.00;100928.71;105883;1264;99582;-80
2024/03/14 09:33:44;;;;;;;49.60;29.80;;;;;;;7.42;100.00;100929.50;105986;1259;101459;-87
2024/03/14 09:36:32;;;;;;;50.90;28.70;;;;;;;7.48;100.00;100928.85;106216;1263;99285;-85
2024/03/14 09:39:18;;;;;;;50.10;29.30;;;;;;;7.53;100.00;100926.08;106281;1259;98072;-86
2024/03/14 09:42:05;;;;;;;53.10;29.80;;;;;;;7.59;100.00;100924.17;106598;1259;96021;-80
2024/03/14 09:44:52;;;;;;;55.10;30.50;;;;;;;7.65;100.00;100918.36;105576;1259;98423;-78
2024/03/14 09:47:38;;;;;;;58.10;31.90;;;;;;;7.70;100.00;100914.91;105951;1259;102716;-78
2024/03/14 09:50:26;;;;;;;51.20;31.80;;;;;;;7.80;100.00;100916.42;105686;1259;100141;-79
2024/03/14 09:53:14;;;;;;;45.50;27.50;;;;;;;7.93;100.00;100914.30;106105;1259;98394;-78
2024/03/14 09:56:00;;;;;;;46.00;26.60;;;;;;;8.06;100.00;100916.11;105738;1262;97917;-78
2024/03/14 09:58:45;;;;;;;42.30;27.50;;;;;;;8.12;100.00;100912.58;105712;1259;97891;-77
2024/03/14 10:01:31;;;;;;;45.80;28.40;;;;;;;8.16;100.00;100910.20;105644;1264;103132;-77
2024/03/14 10:04:16;;;;;;;47.00;26.90;;;;;;;8.19;100.00;100904.38;105618;1264;99088;-78
2024/03/14 10:07:03;;;;;;;43.80;27.60;;;;;;;8.22;100.00;100897.98;105666;1264;97979;-79
2024/03/14 10:09:49;;;;;;;45.70;27.10;;;;;;;8.30;100.00;100895.90;105284;1259;97987;-77
2024/03/14 10:12:38;;;;;;;44.20;27.60;;;;;;;8.42;100.00;100890.91;105607;1259;97972;-78
2024/03/14 10:15:26;;;;;;;42.50;26.90;;;;;;;8.50;100.00;100889.30;105532;1264;101412;-77
2024/03/14 10:18:14;;;;;;;48.60;28.40;;;;;;;8.54;100.00;100890.40;105550;1260;99356;-80
2024/03/14 10:21:05;;;;;;;40.10;25.90;;;;;;;8.59;100.00;100887.98;106257;1259;98086;-80
2024/03/14 10:23:51;;;;;;;;;;;;;;;8.63;100.00;100883.91;106560;1265;97968;-79
2024/03/14 10:26:39;;;;;;;44.90;28.00;;;;;;;8.70;100.00;100884.95;106674;1260;97989;-79
2024/03/14 10:29:36;;;;;;;42.10;27.50;;;;;;;8.81;100.00;100887.23;106208;1259;102687;-78
2024/03/14 10:32:24;;;;;;;40.70;26.50;;;;;;;8.92;100.00;100882.86;106075;1259;100495;-78
2024/03/14 10:35:14;;;;;;;43.50;27.20;;;;;;;8.99;100.00;100877.94;105483;1261;98359;-80
2024/03/14 10:38:01;;;;;;;46.60;29.20;;;;;;;9.04;100.00;100861.20;106397;1264;98089;-80
2024/03/14 10:40:51;;;;;;;46.60;29.50;;;;;;;9.10;100.00;100856.48;106822;1261;98400;-77
2024/03/14 10:43:42;;;;;;;44.30;29.30;;;;;;;9.16;100.00;100859.63;105336;1260;101469;-78
2024/03/14 10:46:30;;;;;;;;;;;;;;;9.24;100.00;100863.75;105575;1264;99879;-77
2024/03/14 10:49:20;;;;;;;42.10;25.20;;;;;;;9.29;100.00;100861.33;105123;1264;99570;-77
2024/03/14 10:52:10;;;;;;;46.00;27.10;;;;;;;9.36;100.00;100857.80;105354;1262;98006;-77
2024/03/14 10:54:55;;;;;;;42.10;26.80;;;;;;;9.42;100.00;100855.42;105533;1260;98003;-78
2024/03/14 10:57:41;;;;;;;47.10;29.40;;;;;;;9.50;100.00;100852.02;105501;1264;101335;-78
2024/03/14 11:00:28;;;;;;;45.50;30.80;;;;;;;9.61;100.00;100856.12;105548;1264;99107;-78
2024/03/14 11:03:17;;;;;;;42.80;28.00;;;;;;;9.71;100.00;100846.58;105800;1262;97861;-78
2024/03/14 11:06:11;;;;;;;42.30;26.80;;;;;;;9.80;100.00;100846.95;105645;1264;98073;-78
2024/03/14 11:09:06;;;;;;;41.70;26.50;;;;;;;9.87;100.00;100850.37;105627;1264;98548;-78
2024/03/14 11:12:03;;;;;;;43.70;27.60;;;;;;;9.96;100.00;100846.57;106909;1259;101688;-78
2024/03/14 11:15:03;;;;;;;42.70;26.10;;;;;;;10.04;100.00;100844.30;105643;1264;99295;-78
2024/03/14 11:17:51;;;;;;;43.30;27.90;;;;;;;10.13;100.00;100846.52;106073;1265;98402;-78
2024/03/14 11:20:37;;;;;;;40.00;27.90;;;;;;;10.23;100.00;100849.10;106176;1261;98001;-79
2024/03/14 11:23:28;;;;;;;39.60;25.90;;;;;;;10.32;100.00;100845.21;105902;1264;98101;-79
2024/03/14 11:26:15;;;;;;;43.10;25.80;;;;;;;10.38;100.00;100844.66;105509;1261;101356;-79
2024/03/14 11:29:05;;;;;;;43.50;26.10;;;;;;;10.44;100.00;100845.93;106134;1259;99144;-79
2024/03/14 11:32:11;;;;;;;41.80;24.90;;;;;;;10.50;100.00;100839.45;105749;1264;98984;-78
2024/03/14 11:35:31;;;;;;;39.20;24.50;;;;;;;10.57;100.00;100838.09;105579;1260;97891;-79
2024/03/14 11:38:19;;;;;;;40.10;24.80;;;;;;;10.63;100.00;100838.39;105604;1260;97881;-78
2024/03/14 11:41:06;;;;;;;37.80;24.70;;;;;;;10.69;100.00;100834.11;105583;1259;102663;-78
2024/03/14 11:43:54;;;;;;;32.80;22.60;;;;;;;10.75;100.00;100828.20;105599;1260;100219;-78
2024/03/14 11:46:39;;;;;;;39.60;24.50;;;;;;;10.82;100.00;100826.71;105793;1263;98739;-79
2024/03/14 11:49:28;;;;;;;35.70;23.80;;;;;;;10.86;100.00;100829.56;105601;1259;97956;-79
2024/03/14 11:52:15;;;;;;;38.30;23.60;;;;;;;10.91;100.00;100829.78;105700;1265;98672;-79
2024/03/14 11:55:06;;;;;;;38.90;26.00;;;;;;;10.95;100.00;100824.75;105713;1260;102471;-77
2024/03/14 11:57:52;;;;;;;38.10;24.80;;;;;;;10.97;100.00;100826.70;105596;1259;100439;-78
2024/03/14 12:00:37;;;;;;;36.40;23.90;;;;;;;11.01;100.00;100824.28;105727;1259;97770;-77
2024/03/14 12:03:23;;;;;;;38.10;24.80;;;;;;;11.05;100.00;100825.17;105739;1262;97860;-78
2024/03/14 12:06:10;;;;;;;34.30;23.80;;;;;;;11.08;100.00;100823.90;105643;1264;98092;-78
2024/03/14 12:08:56;;;;;;;34.60;22.90;;;;;;;11.13;100.00;100820.42;105532;1259;101448;-78
2024/03/14 12:11:41;;;;;;;39.60;23.30;;;;;;;11.19;100.00;100809.33;105646;1259;99235;-78
2024/03/14 12:14:28;;;;;;;36.30;22.80;;;;;;;11.24;100.00;100805.70;105526;1259;97856;-79
2024/03/14 12:17:16;;;;;;;34.50;20.90;;;;;;;11.30;100.00;100807.93;105650;1259;97901;-78
2024/03/14 12:20:05;;;;;;;35.30;22.90;;;;;;;11.37;100.00;100804.71;105596;1259;98425;-78
2024/03/14 12:22:56;;;;;;;35.60;23.00;;;;;;;11.42;100.00;100800.70;105647;1265;102614;-77
2024/03/14 12:25:46;;;;;;;33.10;22.60;;;;;;;11.45;99.89;100797.02;105631;1263;99124;-78
2024/03/14 12:28:33;;;;;;;36.70;24.80;;;;;;;11.45;99.07;100794.84;105514;1265;98364;-78